sensor_id;sensor_type;location;lat;lon;timestamp;P1;durP1;ratioP1;P2;durP2;ratioP2
41466;SDS011;27205;53.690;19.948;2022-07-22T00:03:02;6.80;;;6.20;;
41466;SDS011;27205;53.690;19.948;2022-07-22T00:08:06;5.80;;;5.20;;
41466;SDS011;27205;53.690;19.948;2022-07-22T00:13:09;7.00;;;5.80;;
41466;SDS011;27205;53.690;19.948;2022-07-22T00:18:14;5.20;;;4.80;;
41466;SDS011;27205;53.690;19.948;2022-07-22T00:23:17;5.30;;;4.90;;
41466;SDS011;27205;53.690;19.948;2022-07-22T00:28:20;5.30;;;4.90;;
41466;SDS011;27205;53.690;19.948;2022-07-22T00:33:24;7.50;;;4.90;;
41466;SDS011;27205;53.690;19.948;2022-07-22T00:38:27;5.80;;;5.30;;
41466;SDS011;27205;53.690;19.948;2022-07-22T00:43:51;6.00;;;5.50;;
41466;SDS011;27205;53.690;19.948;2022-07-22T00:49:01;7.40;;;5.00;;
41466;SDS011;27205;53.690;19.948;2022-07-22T00:54:06;5.50;;;5.10;;
41466;SDS011;27205;53.690;19.948;2022-07-22T00:59:10;7.00;;;6.30;;
41466;SDS011;27205;53.690;19.948;2022-07-22T01:04:15;5.20;;;4.80;;
41466;SDS011;27205;53.690;19.948;2022-07-22T01:09:19;7.00;;;5.40;;
41466;SDS011;27205;53.690;19.948;2022-07-22T01:19:26;5.60;;;5.00;;
41466;SDS011;27205;53.690;19.948;2022-07-22T01:24:29;5.20;;;4.80;;
41466;SDS011;27205;53.690;19.948;2022-07-22T01:34:37;6.30;;;5.50;;
41466;SDS011;27205;53.690;19.948;2022-07-22T01:39:40;6.30;;;5.40;;
41466;SDS011;27205;53.690;19.948;2022-07-22T01:44:44;5.70;;;4.90;;
41466;SDS011;27205;53.690;19.948;2022-07-22T01:49:47;13.30;;;6.50;;
41466;SDS011;27205;53.690;19.948;2022-07-22T01:54:51;6.20;;;5.30;;
41466;SDS011;27205;53.690;19.948;2022-07-22T01:59:55;7.50;;;6.00;;
41466;SDS011;27205;53.690;19.948;2022-07-22T02:04:58;7.30;;;6.20;;
41466;SDS011;27205;53.690;19.948;2022-07-22T02:15:06;6.60;;;5.60;;
41466;SDS011;27205;53.690;19.948;2022-07-22T02:20:11;5.30;;;4.60;;
41466;SDS011;27205;53.690;19.948;2022-07-22T02:25:14;5.40;;;4.90;;
41466;SDS011;27205;53.690;19.948;2022-07-22T02:35:21;6.80;;;5.20;;
41466;SDS011;27205;53.690;19.948;2022-07-22T02:40:25;8.10;;;5.60;;
41466;SDS011;27205;53.690;19.948;2022-07-22T02:45:29;6.80;;;5.30;;
41466;SDS011;27205;53.690;19.948;2022-07-22T02:50:33;10.40;;;5.10;;
41466;SDS011;27205;53.690;19.948;2022-07-22T02:55:36;5.60;;;4.40;;
41466;SDS011;27205;53.690;19.948;2022-07-22T03:00:39;5.10;;;4.60;;
41466;SDS011;27205;53.690;19.948;2022-07-22T03:10:46;12.10;;;6.90;;
41466;SDS011;27205;53.690;19.948;2022-07-22T03:20:53;5.20;;;4.70;;
41466;SDS011;27205;53.690;19.948;2022-07-22T03:25:57;5.10;;;4.50;;
41466;SDS011;27205;53.690;19.948;2022-07-22T03:31:00;7.40;;;4.90;;
41466;SDS011;27205;53.690;19.948;2022-07-22T03:36:04;6.80;;;4.70;;
41466;SDS011;27205;53.690;19.948;2022-07-22T03:41:10;5.70;;;4.90;;
41466;SDS011;27205;53.690;19.948;2022-07-22T03:46:14;6.20;;;5.60;;
41466;SDS011;27205;53.690;19.948;2022-07-22T03:56:21;5.70;;;5.00;;
41466;SDS011;27205;53.690;19.948;2022-07-22T04:01:24;5.30;;;4.80;;
41466;SDS011;27205;53.690;19.948;2022-07-22T04:06:28;6.70;;;5.40;;
41466;SDS011;27205;53.690;19.948;2022-07-22T04:11:31;6.80;;;5.40;;
41466;SDS011;27205;53.690;19.948;2022-07-22T04:16:35;7.60;;;5.20;;
41466;SDS011;27205;53.690;19.948;2022-07-22T04:21:38;5.50;;;4.80;;
41466;SDS011;27205;53.690;19.948;2022-07-22T04:31:45;5.20;;;4.70;;
41466;SDS011;27205;53.690;19.948;2022-07-22T04:36:49;8.30;;;6.00;;
41466;SDS011;27205;53.690;19.948;2022-07-22T04:41:53;10.80;;;6.10;;
41466;SDS011;27205;53.690;19.948;2022-07-22T04:46:56;14.00;;;6.90;;
41466;SDS011;27205;53.690;19.948;2022-07-22T04:57:03;16.30;;;6.70;;
41466;SDS011;27205;53.690;19.948;2022-07-22T05:02:07;7.80;;;4.70;;
41466;SDS011;27205;53.690;19.948;2022-07-22T05:07:10;5.70;;;4.70;;
41466;SDS011;27205;53.690;19.948;2022-07-22T05:12:14;5.50;;;4.70;;
41466;SDS011;27205;53.690;19.948;2022-07-22T05:22:21;9.90;;;4.70;;
41466;SDS011;27205;53.690;19.948;2022-07-22T05:32:27;16.10;;;13.60;;
41466;SDS011;27205;53.690;19.948;2022-07-22T05:42:34;11.40;;;8.40;;
41466;SDS011;27205;53.690;19.948;2022-07-22T05:52:40;9.90;;;6.60;;
41466;SDS011;27205;53.690;19.948;2022-07-22T05:57:45;11.00;;;8.30;;
41466;SDS011;27205;53.690;19.948;2022-07-22T06:07:52;13.60;;;9.50;;
41466;SDS011;27205;53.690;19.948;2022-07-22T06:12:55;8.50;;;6.80;;
41466;SDS011;27205;53.690;19.948;2022-07-22T06:17:58;6.20;;;5.60;;
41466;SDS011;27205;53.690;19.948;2022-07-22T06:23:02;11.50;;;7.10;;
41466;SDS011;27205;53.690;19.948;2022-07-22T06:28:05;5.90;;;5.30;;
41466;SDS011;27205;53.690;19.948;2022-07-22T06:33:09;6.60;;;5.60;;
41466;SDS011;27205;53.690;19.948;2022-07-22T06:38:12;7.00;;;6.30;;
41466;SDS011;27205;53.690;19.948;2022-07-22T06:43:31;6.80;;;6.30;;
41466;SDS011;27205;53.690;19.948;2022-07-22T06:48:35;7.30;;;6.20;;
41466;SDS011;27205;53.690;19.948;2022-07-22T06:53:39;9.10;;;6.00;;
41466;SDS011;27205;53.690;19.948;2022-07-22T06:58:43;7.70;;;7.00;;
41466;SDS011;27205;53.690;19.948;2022-07-22T07:03:46;7.50;;;6.80;;
41466;SDS011;27205;53.690;19.948;2022-07-22T07:08:50;8.10;;;7.40;;
41466;SDS011;27205;53.690;19.948;2022-07-22T07:13:53;7.10;;;6.50;;
41466;SDS011;27205;53.690;19.948;2022-07-22T07:18:57;9.20;;;6.70;;
41466;SDS011;27205;53.690;19.948;2022-07-22T07:24:01;7.80;;;6.00;;
41466;SDS011;27205;53.690;19.948;2022-07-22T07:29:06;7.20;;;6.60;;
41466;SDS011;27205;53.690;19.948;2022-07-22T07:34:10;10.50;;;7.20;;
41466;SDS011;27205;53.690;19.948;2022-07-22T07:39:14;7.60;;;6.90;;
41466;SDS011;27205;53.690;19.948;2022-07-22T07:44:35;6.90;;;6.30;;
41466;SDS011;27205;53.690;19.948;2022-07-22T07:49:39;8.40;;;6.00;;
41466;SDS011;27205;53.690;19.948;2022-07-22T07:54:43;8.00;;;6.80;;
41466;SDS011;27205;53.690;19.948;2022-07-22T08:00:08;7.60;;;6.80;;
41466;SDS011;27205;53.690;19.948;2022-07-22T08:05:14;7.20;;;6.50;;
41466;SDS011;27205;53.690;19.948;2022-07-22T08:10:19;7.40;;;6.80;;
41466;SDS011;27205;53.690;19.948;2022-07-22T08:15:44;8.10;;;7.30;;
41466;SDS011;27205;53.690;19.948;2022-07-22T08:20:48;8.60;;;7.40;;
41466;SDS011;27205;53.690;19.948;2022-07-22T08:25:52;7.50;;;6.40;;
41466;SDS011;27205;53.690;19.948;2022-07-22T08:30:56;7.60;;;6.40;;
41466;SDS011;27205;53.690;19.948;2022-07-22T08:36:03;6.30;;;5.90;;
41466;SDS011;27205;53.690;19.948;2022-07-22T08:41:06;6.60;;;6.10;;
41466;SDS011;27205;53.690;19.948;2022-07-22T08:46:11;6.70;;;6.00;;
41466;SDS011;27205;53.690;19.948;2022-07-22T08:51:15;8.50;;;5.00;;
41466;SDS011;27205;53.690;19.948;2022-07-22T08:56:19;5.10;;;4.60;;
41466;SDS011;27205;53.690;19.948;2022-07-22T09:01:22;4.30;;;4.00;;
41466;SDS011;27205;53.690;19.948;2022-07-22T09:06:27;5.00;;;4.60;;
41466;SDS011;27205;53.690;19.948;2022-07-22T09:11:36;5.40;;;4.90;;
41466;SDS011;27205;53.690;19.948;2022-07-22T09:16:47;4.90;;;4.20;;
41466;SDS011;27205;53.690;19.948;2022-07-22T09:21:51;5.60;;;5.00;;
41466;SDS011;27205;53.690;19.948;2022-07-22T09:26:55;4.50;;;4.20;;
41466;SDS011;27205;53.690;19.948;2022-07-22T09:31:59;5.60;;;4.40;;
41466;SDS011;27205;53.690;19.948;2022-07-22T09:37:05;4.50;;;4.10;;
41466;SDS011;27205;53.690;19.948;2022-07-22T09:42:08;3.90;;;3.60;;
41466;SDS011;27205;53.690;19.948;2022-07-22T09:47:27;7.00;;;4.00;;
41466;SDS011;27205;53.690;19.948;2022-07-22T09:52:40;5.30;;;3.80;;
41466;SDS011;27205;53.690;19.948;2022-07-22T09:57:45;4.10;;;3.70;;
41466;SDS011;27205;53.690;19.948;2022-07-22T10:02:56;4.30;;;3.90;;
41466;SDS011;27205;53.690;19.948;2022-07-22T10:08:01;6.20;;;3.50;;
41466;SDS011;27205;53.690;19.948;2022-07-22T10:13:06;3.90;;;3.50;;
41466;SDS011;27205;53.690;19.948;2022-07-22T10:18:15;3.60;;;3.30;;
41466;SDS011;27205;53.690;19.948;2022-07-22T10:23:19;3.30;;;3.00;;
41466;SDS011;27205;53.690;19.948;2022-07-22T10:28:24;5.60;;;3.70;;
41466;SDS011;27205;53.690;19.948;2022-07-22T10:33:35;4.00;;;3.20;;
41466;SDS011;27205;53.690;19.948;2022-07-22T10:38:44;3.50;;;3.20;;
41466;SDS011;27205;53.690;19.948;2022-07-22T10:44:06;4.00;;;3.70;;
41466;SDS011;27205;53.690;19.948;2022-07-22T10:49:20;3.10;;;2.80;;
41466;SDS011;27205;53.690;19.948;2022-07-22T10:54:26;4.00;;;2.80;;
41466;SDS011;27205;53.690;19.948;2022-07-22T10:59:40;4.10;;;3.70;;
41466;SDS011;27205;53.690;19.948;2022-07-22T11:04:57;3.90;;;3.60;;
41466;SDS011;27205;53.690;19.948;2022-07-22T11:10:08;4.20;;;2.80;;
41466;SDS011;27205;53.690;19.948;2022-07-22T11:15:19;3.10;;;2.80;;
41466;SDS011;27205;53.690;19.948;2022-07-22T11:20:29;3.10;;;2.80;;
41466;SDS011;27205;53.690;19.948;2022-07-22T11:25:32;3.20;;;3.00;;
41466;SDS011;27205;53.690;19.948;2022-07-22T11:30:36;3.30;;;3.00;;
41466;SDS011;27205;53.690;19.948;2022-07-22T11:35:39;3.30;;;3.00;;
41466;SDS011;27205;53.690;19.948;2022-07-22T11:40:43;3.60;;;3.30;;
41466;SDS011;27205;53.690;19.948;2022-07-22T11:45:56;6.70;;;3.50;;
41466;SDS011;27205;53.690;19.948;2022-07-22T11:51:01;4.50;;;3.40;;
41466;SDS011;27205;53.690;19.948;2022-07-22T11:56:05;3.70;;;3.40;;
41466;SDS011;27205;53.690;19.948;2022-07-22T12:01:11;6.90;;;3.60;;
41466;SDS011;27205;53.690;19.948;2022-07-22T12:06:17;3.30;;;3.10;;
41466;SDS011;27205;53.690;19.948;2022-07-22T12:11:22;4.10;;;3.30;;
41466;SDS011;27205;53.690;19.948;2022-07-22T12:16:29;3.90;;;3.50;;
41466;SDS011;27205;53.690;19.948;2022-07-22T12:21:34;3.90;;;3.50;;
41466;SDS011;27205;53.690;19.948;2022-07-22T12:36:52;4.10;;;3.70;;
41466;SDS011;27205;53.690;19.948;2022-07-22T12:41:56;4.90;;;4.40;;
41466;SDS011;27205;53.690;19.948;2022-07-22T12:46:59;3.60;;;3.30;;
41466;SDS011;27205;53.690;19.948;2022-07-22T12:52:12;37.40;;;9.60;;
41466;SDS011;27205;53.690;19.948;2022-07-22T12:57:16;4.90;;;3.60;;
41466;SDS011;27205;53.690;19.948;2022-07-22T13:02:20;4.30;;;3.30;;
41466;SDS011;27205;53.690;19.948;2022-07-22T13:07:27;10.40;;;5.50;;
41466;SDS011;27205;53.690;19.948;2022-07-22T13:12:30;3.90;;;3.60;;
41466;SDS011;27205;53.690;19.948;2022-07-22T13:17:34;3.30;;;3.00;;
41466;SDS011;27205;53.690;19.948;2022-07-22T13:22:38;4.40;;;3.00;;
41466;SDS011;27205;53.690;19.948;2022-07-22T13:27:42;3.60;;;3.30;;
41466;SDS011;27205;53.690;19.948;2022-07-22T13:32:46;3.70;;;3.30;;
41466;SDS011;27205;53.690;19.948;2022-07-22T13:37:51;2.70;;;2.50;;
41466;SDS011;27205;53.690;19.948;2022-07-22T13:42:55;4.20;;;3.80;;
41466;SDS011;27205;53.690;19.948;2022-07-22T13:47:58;4.50;;;3.70;;
41466;SDS011;27205;53.690;19.948;2022-07-22T13:53:02;3.40;;;2.90;;
41466;SDS011;27205;53.690;19.948;2022-07-22T13:58:05;3.50;;;2.90;;
41466;SDS011;27205;53.690;19.948;2022-07-22T14:03:09;2.80;;;2.30;;
41466;SDS011;27205;53.690;19.948;2022-07-22T14:08:13;3.90;;;2.90;;
41466;SDS011;27205;53.690;19.948;2022-07-22T14:13:16;4.80;;;2.50;;
41466;SDS011;27205;53.690;19.948;2022-07-22T14:18:20;21.40;;;5.80;;
41466;SDS011;27205;53.690;19.948;2022-07-22T14:23:24;3.00;;;2.80;;
41466;SDS011;27205;53.690;19.948;2022-07-22T14:28:27;3.00;;;2.70;;
41466;SDS011;27205;53.690;19.948;2022-07-22T14:33:38;3.40;;;3.20;;
41466;SDS011;27205;53.690;19.948;2022-07-22T14:38:42;5.20;;;4.90;;
41466;SDS011;27205;53.690;19.948;2022-07-22T14:48:49;12.70;;;12.10;;
41466;SDS011;27205;53.690;19.948;2022-07-22T14:53:56;18.90;;;18.10;;
41466;SDS011;27205;53.690;19.948;2022-07-22T14:59:00;23.50;;;22.60;;
41466;SDS011;27205;53.690;19.948;2022-07-22T15:04:05;26.00;;;25.00;;
41466;SDS011;27205;53.690;19.948;2022-07-22T15:09:09;26.10;;;25.10;;
41466;SDS011;27205;53.690;19.948;2022-07-22T15:14:13;21.00;;;20.20;;
41466;SDS011;27205;53.690;19.948;2022-07-22T15:19:16;12.30;;;11.90;;
41466;SDS011;27205;53.690;19.948;2022-07-22T15:24:26;9.10;;;8.50;;
41466;SDS011;27205;53.690;19.948;2022-07-22T15:29:29;5.60;;;5.40;;
41466;SDS011;27205;53.690;19.948;2022-07-22T15:34:33;4.50;;;4.10;;
41466;SDS011;27205;53.690;19.948;2022-07-22T15:39:36;5.20;;;4.80;;
41466;SDS011;27205;53.690;19.948;2022-07-22T15:44:40;3.80;;;3.50;;
41466;SDS011;27205;53.690;19.948;2022-07-22T15:49:44;3.40;;;3.10;;
41466;SDS011;27205;53.690;19.948;2022-07-22T15:54:55;2.70;;;2.50;;
41466;SDS011;27205;53.690;19.948;2022-07-22T15:59:59;2.40;;;2.30;;
41466;SDS011;27205;53.690;19.948;2022-07-22T16:05:02;3.00;;;2.50;;
41466;SDS011;27205;53.690;19.948;2022-07-22T16:10:06;2.50;;;2.20;;
41466;SDS011;27205;53.690;19.948;2022-07-22T16:15:10;3.20;;;2.90;;
41466;SDS011;27205;53.690;19.948;2022-07-22T16:20:13;2.20;;;2.10;;
41466;SDS011;27205;53.690;19.948;2022-07-22T16:25:17;3.70;;;2.60;;
41466;SDS011;27205;53.690;19.948;2022-07-22T16:30:20;2.60;;;2.40;;
41466;SDS011;27205;53.690;19.948;2022-07-22T16:35:24;2.70;;;2.20;;
41466;SDS011;27205;53.690;19.948;2022-07-22T16:40:28;5.20;;;2.80;;
41466;SDS011;27205;53.690;19.948;2022-07-22T16:45:32;2.20;;;2.00;;
41466;SDS011;27205;53.690;19.948;2022-07-22T16:50:35;3.00;;;2.70;;
41466;SDS011;27205;53.690;19.948;2022-07-22T16:55:39;3.10;;;2.70;;
41466;SDS011;27205;53.690;19.948;2022-07-22T17:00:42;2.50;;;2.30;;
41466;SDS011;27205;53.690;19.948;2022-07-22T17:05:45;3.10;;;2.90;;
41466;SDS011;27205;53.690;19.948;2022-07-22T17:10:49;2.80;;;2.50;;
41466;SDS011;27205;53.690;19.948;2022-07-22T17:15:52;3.00;;;2.50;;
41466;SDS011;27205;53.690;19.948;2022-07-22T17:20:56;4.00;;;2.50;;
41466;SDS011;27205;53.690;19.948;2022-07-22T17:26:06;3.60;;;2.90;;
41466;SDS011;27205;53.690;19.948;2022-07-22T17:31:10;2.70;;;2.50;;
41466;SDS011;27205;53.690;19.948;2022-07-22T17:36:13;3.70;;;2.60;;
41466;SDS011;27205;53.690;19.948;2022-07-22T17:41:17;7.60;;;3.60;;
41466;SDS011;27205;53.690;19.948;2022-07-22T17:46:20;4.00;;;2.90;;
41466;SDS011;27205;53.690;19.948;2022-07-22T17:51:24;3.90;;;2.90;;
41466;SDS011;27205;53.690;19.948;2022-07-22T17:56:30;3.40;;;3.20;;
41466;SDS011;27205;53.690;19.948;2022-07-22T18:01:34;4.00;;;2.90;;
41466;SDS011;27205;53.690;19.948;2022-07-22T18:06:37;3.60;;;3.10;;
41466;SDS011;27205;53.690;19.948;2022-07-22T18:11:41;4.80;;;3.20;;
41466;SDS011;27205;53.690;19.948;2022-07-22T18:16:44;3.60;;;3.30;;
41466;SDS011;27205;53.690;19.948;2022-07-22T18:21:48;5.70;;;3.30;;
41466;SDS011;27205;53.690;19.948;2022-07-22T18:26:51;3.20;;;2.80;;
41466;SDS011;27205;53.690;19.948;2022-07-22T18:31:55;3.60;;;3.30;;
41466;SDS011;27205;53.690;19.948;2022-07-22T18:36:59;4.50;;;3.90;;
41466;SDS011;27205;53.690;19.948;2022-07-22T18:42:02;4.50;;;4.00;;
41466;SDS011;27205;53.690;19.948;2022-07-22T18:47:06;4.70;;;4.00;;
41466;SDS011;27205;53.690;19.948;2022-07-22T18:52:09;6.80;;;4.10;;
41466;SDS011;27205;53.690;19.948;2022-07-22T18:57:13;6.70;;;4.60;;
41466;SDS011;27205;53.690;19.948;2022-07-22T19:02:16;7.60;;;5.60;;
41466;SDS011;27205;53.690;19.948;2022-07-22T19:07:20;4.80;;;4.50;;
41466;SDS011;27205;53.690;19.948;2022-07-22T19:12:23;5.10;;;4.70;;
41466;SDS011;27205;53.690;19.948;2022-07-22T19:17:26;4.70;;;4.40;;
41466;SDS011;27205;53.690;19.948;2022-07-22T19:22:30;4.90;;;4.50;;
41466;SDS011;27205;53.690;19.948;2022-07-22T19:27:33;5.30;;;4.90;;
41466;SDS011;27205;53.690;19.948;2022-07-22T19:32:37;6.00;;;5.10;;
41466;SDS011;27205;53.690;19.948;2022-07-22T19:37:40;5.20;;;4.70;;
41466;SDS011;27205;53.690;19.948;2022-07-22T19:42:44;5.10;;;4.70;;
41466;SDS011;27205;53.690;19.948;2022-07-22T19:47:47;5.10;;;4.70;;
41466;SDS011;27205;53.690;19.948;2022-07-22T19:52:51;6.00;;;5.50;;
41466;SDS011;27205;53.690;19.948;2022-07-22T19:57:54;5.70;;;5.00;;
41466;SDS011;27205;53.690;19.948;2022-07-22T20:09:07;5.10;;;4.80;;
41466;SDS011;27205;53.690;19.948;2022-07-22T20:14:11;5.80;;;5.30;;
41466;SDS011;27205;53.690;19.948;2022-07-22T20:19:16;6.00;;;5.50;;
41466;SDS011;27205;53.690;19.948;2022-07-22T20:24:20;5.60;;;5.20;;
41466;SDS011;27205;53.690;19.948;2022-07-22T20:29:23;6.00;;;5.60;;
41466;SDS011;27205;53.690;19.948;2022-07-22T20:34:27;5.30;;;4.90;;
41466;SDS011;27205;53.690;19.948;2022-07-22T20:44:33;5.10;;;4.70;;
41466;SDS011;27205;53.690;19.948;2022-07-22T20:49:37;5.30;;;5.00;;
41466;SDS011;27205;53.690;19.948;2022-07-22T20:54:40;5.80;;;5.30;;
41466;SDS011;27205;53.690;19.948;2022-07-22T20:59:44;4.70;;;4.30;;
41466;SDS011;27205;53.690;19.948;2022-07-22T21:04:47;5.40;;;5.00;;
41466;SDS011;27205;53.690;19.948;2022-07-22T21:09:51;4.90;;;4.60;;
41466;SDS011;27205;53.690;19.948;2022-07-22T21:14:56;6.10;;;5.60;;
41466;SDS011;27205;53.690;19.948;2022-07-22T21:20:03;6.10;;;5.60;;
41466;SDS011;27205;53.690;19.948;2022-07-22T21:25:07;6.30;;;5.70;;
41466;SDS011;27205;53.690;19.948;2022-07-22T21:30:11;6.70;;;6.10;;
41466;SDS011;27205;53.690;19.948;2022-07-22T21:35:16;5.90;;;5.40;;
41466;SDS011;27205;53.690;19.948;2022-07-22T21:40:19;6.60;;;6.00;;
41466;SDS011;27205;53.690;19.948;2022-07-22T21:45:23;6.20;;;5.80;;
41466;SDS011;27205;53.690;19.948;2022-07-22T21:50:26;6.40;;;5.90;;
41466;SDS011;27205;53.690;19.948;2022-07-22T21:55:30;4.60;;;4.30;;
41466;SDS011;27205;53.690;19.948;2022-07-22T22:00:33;6.40;;;5.90;;
41466;SDS011;27205;53.690;19.948;2022-07-22T22:10:40;5.70;;;5.30;;
41466;SDS011;27205;53.690;19.948;2022-07-22T22:15:52;5.80;;;5.40;;
41466;SDS011;27205;53.690;19.948;2022-07-22T22:20:55;6.10;;;5.60;;
41466;SDS011;27205;53.690;19.948;2022-07-22T22:25:58;5.10;;;4.70;;
41466;SDS011;27205;53.690;19.948;2022-07-22T22:31:02;5.60;;;5.00;;
41466;SDS011;27205;53.690;19.948;2022-07-22T22:36:06;6.00;;;5.50;;
41466;SDS011;27205;53.690;19.948;2022-07-22T22:41:09;6.60;;;6.00;;
41466;SDS011;27205;53.690;19.948;2022-07-22T22:46:13;6.00;;;5.40;;
41466;SDS011;27205;53.690;19.948;2022-07-22T22:51:17;6.40;;;5.90;;
41466;SDS011;27205;53.690;19.948;2022-07-22T22:56:20;5.60;;;5.20;;
41466;SDS011;27205;53.690;19.948;2022-07-22T23:01:23;6.00;;;5.50;;
41466;SDS011;27205;53.690;19.948;2022-07-22T23:06:28;5.80;;;5.40;;
41466;SDS011;27205;53.690;19.948;2022-07-22T23:11:31;6.50;;;6.00;;
41466;SDS011;27205;53.690;19.948;2022-07-22T23:16:34;6.90;;;6.30;;
41466;SDS011;27205;53.690;19.948;2022-07-22T23:21:38;6.30;;;5.80;;
41466;SDS011;27205;53.690;19.948;2022-07-22T23:26:41;7.20;;;6.60;;
41466;SDS011;27205;53.690;19.948;2022-07-22T23:31:45;8.50;;;7.80;;
41466;SDS011;27205;53.690;19.948;2022-07-22T23:36:48;7.10;;;6.60;;
41466;SDS011;27205;53.690;19.948;2022-07-22T23:41:52;7.50;;;7.00;;
41466;SDS011;27205;53.690;19.948;2022-07-22T23:46:55;7.90;;;7.20;;
41466;SDS011;27205;53.690;19.948;2022-07-22T23:52:00;7.70;;;7.00;;
41466;SDS011;27205;53.690;19.948;2022-07-22T23:57:03;7.80;;;7.30;;
